TimeCDT,TemperatureF,Dew PointF,Humidity,Sea Level PressureIn,VisibilityMPH,Wind Direction,Wind SpeedMPH,Gust SpeedMPH,PrecipitationIn,Events,Conditions,WindDirDegrees,DateUTC
12:15 AM,72.5,60.4,66,30.26,10.0,SSE,6.9,-,N/A,,Clear,160,2013-07-17 05:15:00
12:35 AM,72.1,60.8,67,30.27,10.0,SSE,8.1,-,N/A,,Clear,160,2013-07-17 05:35:00
12:55 AM,72.0,61.2,69,30.27,10.0,SSE,6.9,-,N/A,,Clear,160,2013-07-17 05:55:00
1:15 AM,72.1,61.2,68,30.28,10.0,South,5.8,-,N/A,,Clear,180,2013-07-17 06:15:00
1:35 AM,70.0,61.3,74,30.28,10.0,South,5.8,-,N/A,,Clear,180,2013-07-17 06:35:00
1:55 AM,69.8,61.3,74,30.28,10.0,South,5.8,-,N/A,,Clear,170,2013-07-17 06:55:00
2:15 AM,69.8,61.0,73,30.28,10.0,South,4.6,-,N/A,,Clear,180,2013-07-17 07:15:00
2:35 AM,69.8,60.8,73,30.27,10.0,South,6.9,-,N/A,,Clear,170,2013-07-17 07:35:00
2:55 AM,70.0,60.8,73,30.27,10.0,South,5.8,-,N/A,,Clear,180,2013-07-17 07:55:00
3:15 AM,68.9,60.8,75,30.28,10.0,South,3.5,-,N/A,,Scattered Clouds,190,2013-07-17 08:15:00
3:35 AM,68.0,60.8,78,30.28,10.0,Calm,Calm,-,N/A,,Clear,0,2013-07-17 08:35:00
3:55 AM,67.3,60.8,80,30.28,10.0,South,3.5,-,N/A,,Clear,170,2013-07-17 08:55:00
4:15 AM,67.3,60.8,80,30.28,10.0,South,3.5,-,N/A,,Mostly Cloudy,170,2013-07-17 09:15:00
4:35 AM,67.1,61.0,81,30.28,10.0,Calm,Calm,-,N/A,,Overcast,0,2013-07-17 09:35:00
4:55 AM,66.4,60.6,82,30.28,10.0,South,3.5,-,N/A,,Mostly Cloudy,170,2013-07-17 09:55:00
5:15 AM,66.7,60.8,81,30.28,10.0,South,4.6,-,N/A,,Clear,180,2013-07-17 10:15:00
5:35 AM,65.5,60.3,83,30.28,10.0,South,3.5,-,N/A,,Clear,190,2013-07-17 10:35:00
5:55 AM,65.3,59.9,83,30.29,10.0,South,4.6,-,N/A,,Clear,170,2013-07-17 10:55:00
6:15 AM,64.8,60.1,85,30.29,10.0,South,6.9,-,N/A,,Clear,170,2013-07-17 11:15:00
6:35 AM,66.4,60.3,81,30.29,10.0,South,5.8,-,N/A,,Clear,170,2013-07-17 11:35:00
6:55 AM,67.5,60.4,78,30.28,10.0,South,8.1,-,N/A,,Clear,170,2013-07-17 11:55:00
7:15 AM,68.9,60.4,74,30.28,10.0,South,8.1,-,N/A,,Clear,180,2013-07-17 12:15:00
7:35 AM,69.8,61.0,73,30.29,10.0,South,8.1,-,N/A,,Clear,180,2013-07-17 12:35:00
7:55 AM,71.8,61.0,69,30.29,10.0,South,9.2,-,N/A,,Clear,180,2013-07-17 12:55:00
8:15 AM,73.6,61.2,65,30.30,10.0,SSW,8.1,-,N/A,,Clear,200,2013-07-17 13:15:00
8:35 AM,75.0,60.8,61,30.30,10.0,SSW,9.2,-,N/A,,Clear,200,2013-07-17 13:35:00
8:55 AM,77.0,59.9,55,30.30,10.0,SSW,9.2,-,N/A,,Clear,200,2013-07-17 13:55:00
9:15 AM,78.4,58.5,50,30.30,10.0,SSW,12.7,-,N/A,,Clear,200,2013-07-17 14:15:00
9:35 AM,80.1,59.2,49,30.30,10.0,SSW,11.5,-,N/A,,Clear,210,2013-07-17 14:35:00
9:55 AM,81.0,59.0,47,30.30,10.0,SSW,13.8,-,N/A,,Clear,210,2013-07-17 14:55:00
10:15 AM,82.2,58.5,44,30.29,10.0,SW,16.1,20.7,N/A,,Clear,220,2013-07-17 15:15:00
10:35 AM,82.8,58.8,44,30.29,10.0,SSW,15.0,20.7,N/A,,Clear,210,2013-07-17 15:35:00
10:55 AM,83.5,58.3,42,30.29,10.0,SSW,16.1,19.6,N/A,,Clear,210,2013-07-17 15:55:00
11:15 AM,84.2,57.9,41,30.29,10.0,SSW,16.1,20.7,N/A,,Clear,200,2013-07-17 16:15:00
11:35 AM,85.1,57.6,39,30.29,10.0,South,15.0,21.9,N/A,,Clear,190,2013-07-17 16:35:00
11:55 AM,85.6,57.4,38,30.28,10.0,SSW,16.1,21.9,N/A,,Clear,200,2013-07-17 16:55:00
12:15 PM,86.5,57.0,37,30.28,10.0,South,16.1,23.0,N/A,,Clear,180,2013-07-17 17:15:00
12:35 PM,86.5,57.6,37,30.28,10.0,South,12.7,20.7,N/A,,Clear,170,2013-07-17 17:35:00
12:55 PM,87.3,57.0,36,30.27,10.0,SSW,12.7,20.7,N/A,,Clear,200,2013-07-17 17:55:00
1:15 PM,88.2,56.1,34,30.26,10.0,SSW,15.0,23.0,N/A,,Clear,200,2013-07-17 18:15:00
1:35 PM,88.7,56.7,34,30.26,10.0,South,17.3,21.9,N/A,,Clear,190,2013-07-17 18:35:00
1:55 PM,89.1,56.3,33,30.25,10.0,South,19.6,-,N/A,,Clear,170,2013-07-17 18:55:00
2:15 PM,89.6,56.1,32,30.25,10.0,South,15.0,23.0,N/A,,Clear,180,2013-07-17 19:15:00
2:35 PM,90.0,57.0,33,30.24,10.0,South,16.1,20.7,N/A,,Clear,190,2013-07-17 19:35:00
2:55 PM,89.8,55.4,31,30.23,10.0,South,17.3,21.9,N/A,,Clear,190,2013-07-17 19:55:00
3:15 PM,90.3,56.1,31,30.22,10.0,SSW,13.8,20.7,N/A,,Clear,200,2013-07-17 20:15:00
3:35 PM,90.7,55.9,31,30.22,10.0,South,16.1,21.9,N/A,,Scattered Clouds,180,2013-07-17 20:35:00
3:55 PM,89.4,55.4,31,30.22,10.0,South,16.1,25.3,N/A,,Clear,190,2013-07-17 20:55:00
4:15 PM,89.6,55.9,32,30.21,10.0,South,16.1,21.9,N/A,,Scattered Clouds,180,2013-07-17 21:15:00
4:35 PM,89.8,55.8,31,30.21,10.0,South,15.0,19.6,N/A,,Scattered Clouds,180,2013-07-17 21:35:00
4:55 PM,89.8,54.7,30,30.20,10.0,SSW,20.7,25.3,N/A,,Scattered Clouds,210,2013-07-17 21:55:00
5:15 PM,90.1,56.1,31,30.19,10.0,South,19.6,25.3,N/A,,Scattered Clouds,190,2013-07-17 22:15:00
5:35 PM,89.4,55.8,32,30.19,10.0,South,13.8,24.2,N/A,,Scattered Clouds,180,2013-07-17 22:35:00
5:55 PM,88.9,56.1,33,30.18,10.0,South,18.4,25.3,N/A,,Scattered Clouds,180,2013-07-17 22:55:00
6:15 PM,88.9,56.7,33,30.18,10.0,South,17.3,23.0,N/A,,Scattered Clouds,180,2013-07-17 23:15:00
6:35 PM,89.4,57.6,34,30.17,10.0,South,17.3,20.7,N/A,,Scattered Clouds,170,2013-07-17 23:35:00
6:55 PM,88.9,57.7,35,30.17,10.0,South,15.0,20.7,N/A,,Scattered Clouds,180,2013-07-17 23:55:00
7:15 PM,88.5,57.9,35,30.17,10.0,South,12.7,-,N/A,,Scattered Clouds,180,2013-07-18 00:15:00
7:35 PM,88.2,57.7,36,30.16,10.0,South,13.8,-,N/A,,Clear,190,2013-07-18 00:35:00
7:55 PM,87.1,59.9,40,30.16,10.0,South,15.0,19.6,N/A,,Clear,170,2013-07-18 00:55:00
8:15 PM,86.0,60.3,42,30.16,10.0,South,12.7,18.4,N/A,,Clear,170,2013-07-18 01:15:00
8:35 PM,84.7,60.4,44,30.16,10.0,South,11.5,-,N/A,,Clear,170,2013-07-18 01:35:00
8:55 PM,84.0,60.4,45,30.16,10.0,South,10.4,-,N/A,,Clear,170,2013-07-18 01:55:00
9:15 PM,82.9,60.3,46,30.16,10.0,South,11.5,-,N/A,,Clear,170,2013-07-18 02:15:00
9:35 PM,82.4,60.4,47,30.16,10.0,South,11.5,17.3,N/A,,Clear,170,2013-07-18 02:35:00
9:55 PM,81.5,60.4,49,30.16,10.0,South,11.5,-,N/A,,Clear,170,2013-07-18 02:55:00
10:15 PM,80.8,60.8,50,30.16,10.0,South,11.5,18.4,N/A,,Clear,170,2013-07-18 03:15:00
10:35 PM,79.9,61.2,53,30.16,10.0,SSE,10.4,-,N/A,,Clear,160,2013-07-18 03:35:00
10:55 PM,78.6,61.5,56,30.16,10.0,SSE,6.9,-,N/A,,Clear,160,2013-07-18 03:55:00
11:15 PM,78.1,61.9,57,30.16,10.0,SSE,9.2,-,N/A,,Clear,160,2013-07-18 04:15:00
11:35 PM,77.5,62.2,59,30.15,10.0,South,9.2,-,N/A,,Clear,170,2013-07-18 04:35:00
11:55 PM,77.0,62.2,60,30.15,10.0,South,9.2,-,N/A,,Clear,170,2013-07-18 04:55:00